Home   Weather   India   Nãgpur   Past weeks
Flag for India

Past Weather in Nãgpur, Maharashtra, India — Yesterday and Last 2 Weeks

Currently: 102 °F. Broken clouds. (Weather station: Nagpur Sonegaon, India). See more current weather

Past Weather in Nãgpur — Graph

°F

Nãgpur Temperature Yesterday

Maximum temperature yesterday: 104 °F (at 2:00 pm)
Minimum temperature yesterday: 81 °F (at 4:00 am)
Average temperature yesterday: 91 °F

High & Low Weather Summary for the Past Weeks

 TemperatureHumidityPressure
High111 °F (Jun 1, 4:30 pm)94% (Jun 8, 11:00 pm)29.83 "Hg (Jun 8, 11:00 pm)
Low79 °F (Jun 3, 10:30 pm)24% (Jun 1, 4:30 pm)29.53 "Hg (Jun 11, 4:00 pm)
Average93 °F58%29.69 "Hg
* Reported Jun 1 4:30 pm — Jun 16 4:30 pm, Nãgpur. Weather by CustomWeather, © 2024

Note: Actual official high and low records may vary slightly from our data, if they occured in-between our weather recording intervals... More about our weather records

Nãgpur Weather History for the Previous 24 Hours

Scroll right to see more
 ConditionsComfort  
Time TempWeatherWind HumidityBarometerVisibility
4:30 pm
Sun, Jun 16
102 °FBroken clouds.3 mph45%29.62 "Hg3 mi
4:00 pm102 °FBroken clouds.3 mph45%29.62 "Hg3 mi
3:00 pm102 °FScattered clouds.8 mph45%29.65 "Hg3 mi
2:30 pm102 °FScattered clouds.8 mph45%29.65 "Hg3 mi
2:00 pm100 °FBroken clouds.8 mph50%29.65 "Hg3 mi
1:30 pm99 °FBroken clouds.5 mph53%29.68 "Hg3 mi
12:30 pm99 °FBroken clouds.3 mph53%29.71 "Hg3 mi
12:00 pm99 °FBroken clouds.7 mph53%29.71 "Hg3 mi
11:00 am97 °FBroken clouds.6 mph53%29.74 "Hg3 mi
10:30 am97 °FBroken clouds.7 mph53%29.74 "Hg3 mi
10:00 am95 °FBroken clouds.7 mph56%29.74 "Hg3 mi
9:30 am95 °FBroken clouds.8 mph56%29.74 "Hg3 mi
9:00 am91 °FBroken clouds.7 mph63%29.74 "Hg3 mi
8:30 am90 °FBroken clouds.7 mph67%29.74 "Hg3 mi
7:30 am88 °FBroken clouds.6 mph70%29.74 "Hg3 mi
6:30 am86 °FPartly sunny.2 mph70%29.71 "Hg2 mi
5:30 am86 °FPassing clouds.5 mph70%29.71 "Hg2 mi
5:00 am86 °FPassing clouds.5 mph75%29.68 "Hg2 mi
4:30 am88 °FPassing clouds.6 mph70%29.68 "Hg2 mi
4:00 am88 °FPassing clouds.5 mph70%29.65 "Hg2 mi
3:30 am88 °FPassing clouds.5 mph70%29.65 "Hg2 mi
3:00 am90 °FPassing clouds.6 mph67%29.65 "Hg2 mi
2:30 am90 °FPassing clouds.3 mph67%29.65 "Hg2 mi
2:00 am90 °FPassing clouds.6 mph67%29.65 "Hg2 mi
1:30 am90 °FMostly cloudy.7 mph67%29.65 "Hg2 mi
1:00 am91 °FMostly cloudy.6 mph63%29.65 "Hg2 mi
12:30 am90 °FMostly cloudy.5 mph67%29.65 "Hg2 mi
12:00 am91 °FMostly cloudy.5 mph63%29.68 "Hg2 mi
11:30 pm
Sat, Jun 15
91 °FMostly cloudy.3 mph63%29.68 "Hg2 mi
11:00 pm91 °FMostly cloudy.5 mph63%29.68 "Hg2 mi
10:30 pm93 °FMostly cloudy.7 mph59%29.68 "Hg2 mi
10:00 pm93 °FPartly cloudy.7 mph59%29.68 "Hg2 mi
9:30 pm93 °FPartly cloudy.7 mph59%29.65 "Hg2 mi
9:00 pm95 °FPartly cloudy.3 mph56%29.65 "Hg2 mi
8:30 pm95 °FPartly cloudy.5 mph56%29.65 "Hg2 mi
7:30 pm97 °FPartly cloudy.2 mph53%29.62 "Hg3 mi
6:30 pm99 °FScattered clouds.6 mph50%29.59 "Hg3 mi
6:00 pm99 °FScattered clouds.7 mph50%29.59 "Hg3 mi
5:30 pm100 °FScattered clouds.12 mph47%29.56 "Hg3 mi
Weather by CustomWeather, © 2024

See weather overview